Time;durP1;ratioP1;P1;durP2;ratioP2;P2;SDS_P1;SDS_P2;PMS_P1;PMS_P2;Temp;Humidity;BMP_temperature;BMP_pressure;BME280_temperature;BME280_humidity;BME280_pressure;Samples;Min_cycle;Max_cycle;Signal;HPM_P1;HPM_P2
2022/02/18 00:01:31;;;;;;;;;;;;;;;19.51;41.74;100502.31;7285166;19;152245;-50
2022/02/18 00:04:01;;;;;;;;;;;;;;;19.54;41.32;100489.63;7284875;19;153587;-51
2022/02/18 00:06:27;;;;;;;;;;;;;;;19.58;41.45;100507.47;7287288;19;152061;-50
2022/02/18 00:08:55;;;;;;;;;;;;;;;19.61;41.33;100487.25;7287343;19;152846;-50
2022/02/18 00:11:22;;;;;;;;;;;;;;;19.65;41.41;100476.25;7284595;19;155656;-51
2022/02/18 00:13:49;;;;;;;;;;;;;;;19.68;41.08;100470.00;7284332;19;151867;-50
2022/02/18 00:16:16;;;;;;;;;;;;;;;19.70;41.21;100478.94;7292085;19;152894;-50
2022/02/18 00:18:43;;;;;;;;;;;;;;;19.71;41.25;100492.66;7285032;19;154003;-50
2022/02/18 00:21:10;;;;;;;;;;;;;;;19.73;41.17;100476.31;7288036;19;153500;-50
2022/02/18 00:23:36;;;;;;;;;;;;;;;19.74;41.39;100461.16;7283947;19;153721;-50
2022/02/18 00:26:03;;;;;;;;;;;;;;;19.74;41.38;100452.75;7285962;19;152243;-50
2022/02/18 00:28:32;;;;;;;;;;;;;;;19.76;41.39;100438.44;7284958;19;153540;-50
2022/02/18 00:31:00;;;;;;;;;;;;;;;19.76;40.97;100414.03;7282043;19;154905;-50
2022/02/18 00:33:27;;;;;;;;;;;;;;;19.76;41.23;100404.81;7288226;19;152020;-50
2022/02/18 00:35:54;;;;;;;;;;;;;;;19.75;41.37;100395.56;7287977;19;155234;-50
2022/02/18 00:38:21;;;;;;;;;;;;;;;19.75;41.06;100381.56;7286889;19;152279;-50
2022/02/18 00:40:48;;;;;;;;;;;;;;;19.75;41.09;100375.94;7284477;19;151970;-50
2022/02/18 00:43:15;;;;;;;;;;;;;;;19.74;40.99;100363.06;7284734;19;154360;-51
2022/02/18 00:45:42;;;;;;;;;;;;;;;19.74;41.00;100343.44;7287364;19;152878;-50
2022/02/18 00:48:09;;;;;;;;;;;;;;;19.74;41.36;100325.81;7285788;19;152617;-50
2022/02/18 00:50:36;;;;;;;;;;;;;;;19.72;41.28;100306.50;7283309;19;155020;-51
2022/02/18 00:53:03;;;;;;;;;;;;;;;19.71;41.15;100313.25;7282588;19;152261;-51
2022/02/18 00:55:30;;;;;;;;;;;;;;;19.70;41.08;100306.00;7286241;19;152556;-50
2022/02/18 00:57:57;;;;;;;;;;;;;;;19.69;41.51;100295.09;7289724;19;153782;-50
2022/02/18 01:00:24;;;;;;;;;;;;;;;19.67;41.60;100283.41;7284084;19;154179;-51
2022/02/18 01:02:50;;;;;;;;;;;;;;;19.64;41.49;100284.84;7285321;19;152334;-50
2022/02/18 01:05:17;;;;;;;;;;;;;;;19.64;41.52;100270.00;7286554;19;152036;-50
2022/02/18 01:07:44;;;;;;;;;;;;;;;19.62;41.43;100273.13;7284041;19;154884;-50
2022/02/18 01:10:12;;;;;;;;;;;;;;;19.64;41.38;100270.00;7282723;19;153451;-50
2022/02/18 01:12:39;;;;;;;;;;;;;;;19.66;41.64;100248.94;7282975;19;151759;-51
2022/02/18 01:15:07;;;;;;;;;;;;;;;19.68;41.54;100235.41;7283846;19;153627;-50
2022/02/18 01:17:34;;;;;;;;;;;;;;;19.65;41.87;100222.03;7282439;19;153982;-50
2022/02/18 01:20:03;;;;;;;;;;;;;;;19.62;41.92;100219.06;7290003;19;152648;-50
2022/02/18 01:22:29;;;;;;;;;;;;;;;19.66;41.92;100218.09;7284615;19;153885;-51
2022/02/18 01:24:56;;;;;;;;;;;;;;;19.65;42.02;100196.00;7286108;19;152035;-51
2022/02/18 01:27:23;;;;;;;;;;;;;;;19.62;42.36;100197.47;7283442;19;154027;-51
2022/02/18 01:29:50;;;;;;;;;;;;;;;19.59;41.96;100178.47;7279985;19;153036;-51
2022/02/18 01:32:17;;;;;;;;;;;;;;;19.59;42.45;100160.84;7281616;19;152260;-50
2022/02/18 01:34:43;;;;;;;;;;;;;;;19.57;42.47;100149.16;7285558;19;154158;-50
2022/02/18 01:37:10;;;;;;;;;;;;;;;19.53;42.55;100137.75;7284289;19;153856;-50
2022/02/18 01:39:37;;;;;;;;;;;;;;;19.51;42.41;100121.25;7283766;19;151821;-50
2022/02/18 01:42:04;;;;;;;;;;;;;;;19.50;42.57;100113.16;7287881;19;152132;-50
2022/02/18 01:44:32;;;;;;;;;;;;;;;19.48;42.54;100095.88;7282638;19;152495;-50
2022/02/18 01:46:59;;;;;;;;;;;;;;;19.46;42.99;100096.19;7283622;19;153679;-50
2022/02/18 01:49:26;;;;;;;;;;;;;;;19.44;43.15;100073.25;7284261;19;153800;-50
2022/02/18 01:51:53;;;;;;;;;;;;;;;19.43;43.03;100066.00;7284503;19;152013;-51
2022/02/18 01:54:20;;;;;;;;;;;;;;;19.41;43.47;100050.63;7284753;19;153690;-51
2022/02/18 01:56:47;;;;;;;;;;;;;;;19.39;43.22;100053.78;7282871;19;152904;-50
2022/02/18 01:59:14;;;;;;;;;;;;;;;19.39;43.59;100050.16;7283887;19;152941;-51
2022/02/18 02:01:41;;;;;;;;;;;;;;;19.36;43.79;100040.41;7285624;19;152796;-50
2022/02/18 02:04:08;;;;;;;;;;;;;;;19.35;43.89;100035.13;7289995;19;152707;-50
2022/02/18 02:06:34;;;;;;;;;;;;;;;19.32;43.64;100025.38;7282709;19;153318;-50
2022/02/18 02:09:01;;;;;;;;;;;;;;;19.30;44.30;100032.47;7283910;19;153340;-50
2022/02/18 02:11:28;;;;;;;;;;;;;;;19.27;44.20;100013.50;7281895;19;151906;-49
2022/02/18 02:13:55;;;;;;;;;;;;;;;19.25;43.97;100001.81;7284656;19;153308;-50
2022/02/18 02:16:22;;;;;;;;;;;;;;;19.23;44.06;99999.31;7283125;19;153960;-51
2022/02/18 02:18:49;;;;;;;;;;;;;;;19.22;44.36;99994.03;7282859;19;152135;-50
2022/02/18 02:21:16;;;;;;;;;;;;;;;19.18;44.42;99977.06;7284750;19;152086;-50
2022/02/18 02:23:43;;;;;;;;;;;;;;;19.17;44.24;99953.00;7281397;19;154551;-50
2022/02/18 02:26:10;;;;;;;;;;;;;;;19.16;44.36;99958.94;7289710;19;153093;-50
2022/02/18 02:28:37;;;;;;;;;;;;;;;19.12;44.46;99941.13;7281118;19;153791;-50
2022/02/18 02:31:04;;;;;;;;;;;;;;;19.10;44.63;99921.84;7278859;19;152045;-50
2022/02/18 02:33:31;;;;;;;;;;;;;;;19.07;44.64;99906.53;7281138;19;152691;-50
2022/02/18 02:35:58;;;;;;;;;;;;;;;19.05;44.38;99891.19;7282482;19;153792;-50
2022/02/18 02:38:24;;;;;;;;;;;;;;;19.02;44.62;99880.66;7284248;19;152094;-51
2022/02/18 02:40:51;;;;;;;;;;;;;;;19.01;44.91;99863.03;7278470;19;153211;-50
2022/02/18 02:43:18;;;;;;;;;;;;;;;18.99;44.59;99842.94;7282489;19;153156;-50
2022/02/18 02:45:45;;;;;;;;;;;;;;;18.97;44.53;99825.66;7291243;19;151657;-50
2022/02/18 02:48:12;;;;;;;;;;;;;;;18.95;44.73;99819.53;7282396;19;154025;-50
2022/02/18 02:50:39;;;;;;;;;;;;;;;18.94;45.18;99815.09;7284220;19;151928;-50
2022/02/18 02:53:05;;;;;;;;;;;;;;;18.92;45.03;99800.59;7283580;19;153655;-51
2022/02/18 02:55:32;;;;;;;;;;;;;;;18.91;45.37;99792.53;7280426;19;154320;-51
2022/02/18 02:58:00;;;;;;;;;;;;;;;18.89;45.47;99792.88;7281119;19;152033;-51
2022/02/18 03:00:27;;;;;;;;;;;;;;;18.88;45.12;99780.03;7278927;19;153351;-50
2022/02/18 03:02:54;;;;;;;;;;;;;;;18.87;45.45;99772.78;7280405;19;153763;-50
2022/02/18 03:05:21;;;;;;;;;;;;;;;18.86;45.60;99740.34;7282973;19;152002;-51
2022/02/18 03:07:48;;;;;;;;;;;;;;;18.83;45.28;99737.38;7289169;19;152847;-50
2022/02/18 03:10:15;;;;;;;;;;;;;;;18.82;45.70;99713.31;7282368;19;151774;-50
2022/02/18 03:12:42;;;;;;;;;;;;;;;18.80;45.80;99707.25;7280953;19;152962;-51
2022/02/18 03:15:09;;;;;;;;;;;;;;;18.80;45.65;99708.09;7281747;19;153681;-50
2022/02/18 03:17:36;;;;;;;;;;;;;;;18.79;45.57;99688.81;7278146;19;152083;-51
2022/02/18 03:20:03;;;;;;;;;;;;;;;18.77;45.70;99677.94;7277344;19;154668;-50
2022/02/18 03:22:30;;;;;;;;;;;;;;;18.76;45.94;99670.69;7282055;19;154006;-51
2022/02/18 03:24:57;;;;;;;;;;;;;;;18.76;45.78;99656.69;7282868;19;151893;-50
2022/02/18 03:27:24;;;;;;;;;;;;;;;18.74;46.18;99650.63;7282684;19;153470;-51
2022/02/18 03:29:51;;;;;;;;;;;;;;;18.71;46.34;99634.50;7288492;19;153824;-51
2022/02/18 03:32:18;;;;;;;;;;;;;;;18.70;46.32;99632.84;7277646;19;153177;-50
2022/02/18 03:34:45;;;;;;;;;;;;;;;18.70;46.72;99615.22;7277672;19;154952;-51
2022/02/18 03:37:12;;;;;;;;;;;;;;;18.68;46.38;99601.56;7278639;19;151986;-50
2022/02/18 03:39:39;;;;;;;;;;;;;;;18.65;46.44;99600.25;7279916;19;152846;-50
2022/02/18 03:42:06;;;;;;;;;;;;;;;18.64;46.54;99590.22;7277695;19;152483;-51
2022/02/18 03:44:35;;;;;;;;;;;;;;;18.63;46.67;99582.13;7282564;19;152450;-51
2022/02/18 03:47:02;;;;;;;;;;;;;;;18.62;46.98;99566.53;7281888;19;153286;-50
2022/02/18 03:49:29;;;;;;;;;;;;;;;18.61;46.94;99550.91;7280669;19;153299;-50
2022/02/18 03:51:56;;;;;;;;;;;;;;;18.59;46.93;99540.03;7289262;19;151733;-50
2022/02/18 03:54:25;;;;;;;;;;;;;;;18.57;46.90;99511.56;7279454;19;153819;-50
2022/02/18 03:56:53;;;;;;;;;;;;;;;18.58;47.04;99502.00;7279190;19;151760;-51
2022/02/18 03:59:20;;;;;;;;;;;;;;;18.56;47.06;99501.53;7280425;19;153218;-50
2022/02/18 04:01:47;;;;;;;;;;;;;;;18.55;47.07;99497.09;7280526;19;154375;-51
2022/02/18 04:04:14;;;;;;;;;;;;;;;18.54;47.31;99494.59;7280158;19;152192;-50
2022/02/18 04:06:41;;;;;;;;;;;;;;;18.52;47.17;99491.31;7287210;19;154183;-51
2022/02/18 04:09:08;;;;;;;;;;;;;;;18.50;47.19;99479.63;7285374;19;152304;-51
2022/02/18 04:11:35;;;;;;;;;;;;;;;18.52;47.76;99472.56;7284001;19;152219;-50
2022/02/18 04:14:02;;;;;;;;;;;;;;;18.49;47.50;99464.81;7292397;19;152764;-50
2022/02/18 04:16:29;;;;;;;;;;;;;;;18.47;47.63;99449.53;7287808;19;151525;-50
2022/02/18 04:18:57;;;;;;;;;;;;;;;18.47;47.66;99443.94;7287349;19;153239;-50
2022/02/18 04:21:24;;;;;;;;;;;;;;;18.45;48.09;99430.28;7285179;19;153966;-51
2022/02/18 04:23:51;;;;;;;;;;;;;;;18.47;48.09;99422.38;7285432;19;151869;-50
2022/02/18 04:26:18;;;;;;;;;;;;;;;18.44;48.20;99425.03;7288169;19;152622;-50
2022/02/18 04:28:45;;;;;;;;;;;;;;;18.44;48.10;99411.84;7286615;19;153774;-51
2022/02/18 04:31:12;;;;;;;;;;;;;;;18.43;48.17;99406.59;7285346;19;151840;-50
2022/02/18 04:33:39;;;;;;;;;;;;;;;18.41;48.10;99392.94;7283704;19;153510;-50
2022/02/18 04:36:06;;;;;;;;;;;;;;;18.40;48.19;99391.28;7292279;19;151874;-50
2022/02/18 04:38:33;;;;;;;;;;;;;;;18.40;48.66;99387.66;7286925;19;153424;-51
2022/02/18 04:40:59;;;;;;;;;;;;;;;18.39;48.36;99374.88;7282466;19;154529;-50
2022/02/18 04:43:27;;;;;;;;;;;;;;;18.39;48.50;99366.47;7286223;19;152556;-51
2022/02/18 04:45:54;;;;;;;;;;;;;;;18.36;48.88;99362.34;7286953;19;153609;-51
2022/02/18 04:48:21;;;;;;;;;;;;;;;18.36;49.03;99353.16;7286239;19;153422;-50
2022/02/18 04:50:48;;;;;;;;;;;;;;;18.35;48.89;99346.72;7285635;19;152257;-50
2022/02/18 04:53:33;;;;;;;;;;;;;;;18.35;49.16;99317.97;7286401;19;153618;-50
2022/02/18 04:56:00;;;;;;;;;;;;;;;18.38;49.25;99328.47;7293657;19;153273;-50
2022/02/18 04:58:27;;;;;;;;;;;;;;;18.34;49.03;99319.13;7286412;19;155220;-50
2022/02/18 05:00:54;;;;;;;;;;;;;;;18.32;49.22;99313.84;7284298;19;153362;-50
2022/02/18 05:03:21;;;;;;;;;;;;;;;18.31;49.32;99316.97;7284166;19;153268;-51
2022/02/18 05:05:47;;;;;;;;;;;;;;;18.29;49.33;99300.56;7285225;19;153175;-50
2022/02/18 05:08:14;;;;;;;;;;;;;;;18.29;49.41;99296.94;7284122;19;153939;-50
2022/02/18 05:10:41;;;;;;;;;;;;;;;18.27;49.74;99305.63;7281554;19;152133;-51
2022/02/18 05:13:08;;;;;;;;;;;;;;;18.23;49.72;99283.13;7285319;19;152753;-50
2022/02/18 05:15:35;;;;;;;;;;;;;;;18.23;49.64;99294.31;7283380;19;153931;-51
2022/02/18 05:18:02;;;;;;;;;;;;;;;18.23;50.14;99288.72;7288632;19;152211;-51
2022/02/18 05:20:30;;;;;;;;;;;;;;;18.20;50.33;99264.25;7281934;19;154325;-51
2022/02/18 05:22:57;;;;;;;;;;;;;;;18.20;50.34;99264.25;7284198;19;151971;-50
2022/02/18 05:25:25;;;;;;;;;;;;;;;18.21;50.06;99256.69;7286017;19;153644;-51
2022/02/18 05:27:52;;;;;;;;;;;;;;;18.21;50.45;99248.28;7283100;19;153423;-50
2022/02/18 05:30:19;;;;;;;;;;;;;;;18.25;49.96;99240.06;7283141;19;151717;-50
2022/02/18 05:32:50;;;;;;;;;;;;;;;18.30;49.83;99232.31;7282668;19;153973;-50
2022/02/18 05:35:17;;;;;;;;;;;;;;;18.34;50.35;99218.47;7279031;19;153619;-51
2022/02/18 05:37:43;;;;;;;;;;;;;;;18.39;50.13;99207.09;7284498;19;151869;-50
2022/02/18 05:40:11;;;;;;;;;;;;;;;18.41;50.10;99194.41;7290785;19;153096;-50
2022/02/18 05:42:38;;;;;;;;;;;;;;;18.47;50.09;99195.88;7282296;19;151866;-50
2022/02/18 05:45:05;;;;;;;;;;;;;;;18.54;50.26;99189.75;7285815;19;151949;-51
2022/02/18 05:47:34;;;;;;;;;;;;;;;18.60;50.43;99182.81;7281708;19;154966;-51
2022/02/18 05:50:02;;;;;;;;;;;;;;;18.65;50.63;99174.25;7282249;19;152371;-51
2022/02/18 05:52:29;;;;;;;;;;;;;;;18.73;51.07;99166.94;7282187;19;152880;-50
2022/02/18 05:54:56;;;;;;;;;;;;;;;18.79;50.92;99165.59;7284274;19;153980;-50
2022/02/18 05:57:23;;;;;;;;;;;;;;;18.85;51.07;99162.22;7282733;19;151998;-50
2022/02/18 05:59:50;;;;;;;;;;;;;;;18.91;51.20;99130.09;7284364;19;153349;-50
2022/02/18 06:02:17;;;;;;;;;;;;;;;19.00;51.56;99138.41;7288455;19;154741;-50
2022/02/18 06:04:46;;;;;;;;;;;;;;;19.07;51.12;99124.72;7284593;19;152186;-51
2022/02/18 06:07:15;;;;;;;;;;;;;;;19.13;50.96;99119.69;7283920;19;155224;-50
2022/02/18 06:09:42;;;;;;;;;;;;;;;19.20;50.83;99114.38;7283129;19;152263;-50
2022/02/18 06:12:09;;;;;;;;;;;;;;;19.27;50.71;99081.03;7284469;19;152273;-51
2022/02/18 06:14:36;;;;;;;;;;;;;;;19.33;50.93;99082.44;7283562;19;154352;-51
2022/02/18 06:17:08;;;;;;;;;;;;;;;19.39;50.94;99078.28;7284528;19;153809;-51
2022/02/18 06:19:35;;;;;;;;;;;;;;;19.44;50.35;99081.69;7282369;19;152848;-51
2022/02/18 06:22:02;;;;;;;;;;;;;;;19.51;50.50;99087.53;7278890;19;154014;-51
2022/02/18 06:24:29;;;;;;;;;;;;;;;19.58;50.73;99060.97;7289736;19;151967;-51
2022/02/18 06:26:56;;;;;;;;;;;;;;;19.64;50.48;99051.13;7279165;19;154764;-50
2022/02/18 06:29:22;;;;;;;;;;;;;;;19.69;50.21;99064.91;7283999;19;152445;-50
2022/02/18 06:31:49;;;;;;;;;;;;;;;19.75;50.17;99044.75;7278456;19;153394;-50
2022/02/18 06:34:16;;;;;;;;;;;;;;;19.80;50.62;99035.28;7282220;19;153990;-51
2022/02/18 06:36:43;;;;;;;;;;;;;;;19.86;50.62;99031.06;7278438;19;152266;-52
2022/02/18 06:39:10;;;;;;;;;;;;;;;19.92;50.26;99046.50;7281993;19;154995;-50
2022/02/18 06:41:37;;;;;;;;;;;;;;;19.97;50.37;99033.06;7281726;19;154347;-50
2022/02/18 06:44:04;;;;;;;;;;;;;;;20.03;50.11;99018.81;7289552;19;152029;-50
2022/02/18 06:46:32;;;;;;;;;;;;;;;20.10;49.56;99024.63;7282153;19;154253;-50
2022/02/18 06:48:58;;;;;;;;;;;;;;;20.14;49.61;99020.78;7281624;19;151849;-50
2022/02/18 06:51:25;;;;;;;;;;;;;;;20.19;49.65;99017.72;7284761;19;153686;-51
2022/02/18 06:53:52;;;;;;;;;;;;;;;20.23;49.85;99024.25;7282665;19;153992;-50
2022/02/18 06:56:39;;;;;;;;;;;;;;;20.30;49.60;99013.31;7282773;19;151893;-50
2022/02/18 06:59:08;;;;;;;;;;;;;;;20.35;49.05;99006.63;7284297;19;153316;-50
2022/02/18 07:01:35;;;;;;;;;;;;;;;20.39;49.58;99008.38;7281492;19;153913;-51
2022/02/18 07:04:02;;;;;;;;;;;;;;;20.46;49.23;99023.78;7280292;19;152035;-50
2022/02/18 07:06:28;;;;;;;;;;;;;;;20.50;49.06;99033.94;7288791;19;153683;-50
2022/02/18 07:08:55;;;;;;;;;;;;;;;20.54;49.13;99032.03;7283965;19;151823;-50
2022/02/18 07:11:22;;;;;;;;;;;;;;;20.58;48.64;99007.72;7281437;19;152807;-51
2022/02/18 07:13:49;;;;;;;;;;;;;;;20.63;48.56;99003.84;7283479;19;153738;-51
2022/02/18 07:16:16;;;;;;;;;;;;;;;20.67;48.48;98993.56;7282019;19;151920;-51
2022/02/18 07:18:43;;;;;;;;;;;;;;;20.71;48.13;99020.56;7282496;19;153202;-51
2022/02/18 07:21:11;;;;;;;;;;;;;;;20.75;48.12;99004.63;7280008;19;153912;-51
2022/02/18 07:23:38;;;;;;;;;;;;;;;20.78;48.63;98987.06;7283138;19;151553;-51
2022/02/18 07:26:05;;;;;;;;;;;;;;;20.82;48.63;98987.97;7284060;19;153151;-51
2022/02/18 07:28:32;;;;;;;;;;;;;;;20.84;48.11;98966.00;7289231;19;154191;-51
2022/02/18 07:30:59;;;;;;;;;;;;;;;20.87;48.41;98967.25;7283739;19;152660;-51
2022/02/18 07:33:26;;;;;;;;;;;;;;;20.88;48.26;98954.84;7282380;19;153872;-51
2022/02/18 07:35:53;;;;;;;;;;;;;;;20.92;48.05;98971.78;7280288;19;151982;-51
2022/02/18 07:38:20;;;;;;;;;;;;;;;20.94;47.63;98969.44;7279752;19;152799;-51
2022/02/18 07:40:47;;;;;;;;;;;;;;;20.95;47.54;98962.63;7282875;19;153474;-51
2022/02/18 07:43:14;;;;;;;;;;;;;;;20.96;47.51;98944.63;7286275;19;152291;-51
2022/02/18 07:46:02;;;;;;;;;;;;;;;20.96;47.08;98937.03;7288403;19;154828;-50
2022/02/18 07:48:29;;;;;;;;;;;;;;;20.96;46.77;98944.63;7288376;19;154954;-51
2022/02/18 07:50:56;;;;;;;;;;;;;;;20.95;47.32;98957.84;7295691;19;152076;-51
2022/02/18 07:53:24;;;;;;;;;;;;;;;20.93;46.36;98951.78;7287298;19;153947;-51
2022/02/18 07:55:51;;;;;;;;;;;;;;;20.95;46.39;98955.03;7289710;19;152034;-51
2022/02/18 07:58:18;;;;;;;;;;;;;;;20.92;46.62;98936.13;7286494;19;152137;-51
2022/02/18 08:00:45;;;;;;;;;;;;;;;20.90;46.19;98957.28;7288676;19;155379;-51
2022/02/18 08:03:12;;;;;;;;;;;;;;;20.86;46.22;98918.72;7287004;19;151927;-51
2022/02/18 08:05:39;;;;;;;;;;;;;;;20.86;45.97;98934.75;7289904;19;153410;-51
2022/02/18 08:08:06;;;;;;;;;;;;;;;20.85;46.16;98922.69;7287600;19;152471;-50
2022/02/18 08:10:33;;;;;;;;;;;;;;;20.83;45.72;98924.25;7287430;19;152327;-50
2022/02/18 08:13:04;;;;;;;;;;;;;;;20.82;45.97;98922.59;7293708;19;152809;-50
2022/02/18 08:15:32;;;;;;;;;;;;;;;20.79;46.04;98907.31;7289936;19;152432;-50
2022/02/18 08:17:58;;;;;;;;;;;;;;;20.78;46.01;98921.69;7287282;19;152832;-50
2022/02/18 08:20:25;;;;;;;;;;;;;;;20.76;45.62;98926.84;7286929;19;154329;-51
2022/02/18 08:22:52;;;;;;;;;;;;;;;20.73;45.89;98917.16;7287677;19;151912;-50
2022/02/18 08:25:19;;;;;;;;;;;;;;;20.71;45.63;98915.91;7288608;19;152806;-50
2022/02/18 08:27:47;;;;;;;;;;;;;;;20.69;45.63;98902.22;7287656;19;154487;-51
2022/02/18 08:30:14;;;;;;;;;;;;;;;20.68;46.24;98905.38;7288974;19;152429;-51
2022/02/18 08:32:41;;;;;;;;;;;;;;;20.65;45.95;98892.88;7288093;19;151933;-50
2022/02/18 08:35:08;;;;;;;;;;;;;;;20.64;46.34;98887.63;7293567;19;153932;-51
2022/02/18 08:37:36;;;;;;;;;;;;;;;20.62;46.32;98913.25;7283012;19;152792;-51
2022/02/18 08:40:03;;;;;;;;;;;;;;;20.60;45.96;98938.03;7286493;19;153890;-51
2022/02/18 08:42:30;;;;;;;;;;;;;;;20.58;46.30;98931.97;7287196;19;151723;-51
2022/02/18 08:44:57;;;;;;;;;;;;;;;20.56;45.98;98920.28;7285053;19;152497;-50
2022/02/18 08:47:24;;;;;;;;;;;;;;;20.52;46.06;98896.94;7285095;19;154477;-51
2022/02/18 08:49:51;;;;;;;;;;;;;;;20.50;45.62;98910.50;7285176;19;151925;-50
2022/02/18 08:52:19;;;;;;;;;;;;;;;20.48;45.20;98884.81;7287909;19;154111;-51
2022/02/18 08:54:45;;;;;;;;;;;;;;;20.44;45.50;98897.91;7294029;19;154015;-51
2022/02/18 08:57:13;;;;;;;;;;;;;;;20.44;44.94;98917.56;7285819;19;153225;-51
2022/02/18 08:59:40;;;;;;;;;;;;;;;20.36;45.04;98894.06;7284976;19;153961;-51
2022/02/18 09:02:09;;;;;;;;;;;;;;;20.33;44.65;98905.19;7287280;19;151993;-51
2022/02/18 09:04:36;;;;;;;;;;;;;;;20.31;45.01;98885.09;7287184;19;152880;-51
2022/02/18 09:07:07;;;;;;;;;;;;;;;20.29;45.03;98890.22;7286293;19;153445;-51
2022/02/18 09:09:34;;;;;;;;;;;;;;;20.25;44.90;98875.28;7287577;19;152233;-51
2022/02/18 09:12:01;;;;;;;;;;;;;;;20.23;44.86;98858.81;7283799;19;153287;-51
2022/02/18 09:14:28;;;;;;;;;;;;;;;20.20;44.72;98853.94;7284918;19;154072;-50
2022/02/18 09:16:55;;;;;;;;;;;;;;;20.16;44.72;98830.59;7293592;19;151547;-50
2022/02/18 09:19:22;;;;;;;;;;;;;;;20.16;44.98;98832.56;7285345;19;152428;-51
2022/02/18 09:21:49;;;;;;;;;;;;;;;20.14;44.74;98851.72;7286423;19;151959;-50
2022/02/18 09:24:16;;;;;;;;;;;;;;;20.11;44.99;98891.69;7285943;19;152038;-50
2022/02/18 09:26:43;;;;;;;;;;;;;;;20.05;45.08;98843.47;7283956;19;154316;-51
2022/02/18 09:29:11;;;;;;;;;;;;;;;20.01;44.46;98858.56;7284495;19;151753;-51
2022/02/18 09:31:38;;;;;;;;;;;;;;;19.98;44.18;98846.09;7285909;19;154117;-51
2022/02/18 09:34:05;;;;;;;;;;;;;;;19.93;43.89;98844.34;7282034;19;153127;-51
2022/02/18 09:36:32;;;;;;;;;;;;;;;19.91;44.37;98843.06;7286402;19;151986;-51
2022/02/18 09:38:59;;;;;;;;;;;;;;;19.86;44.36;98820.88;7287540;19;152839;-50
2022/02/18 09:41:26;;;;;;;;;;;;;;;19.86;44.47;98804.06;7286786;19;152029;-51
2022/02/18 09:43:54;;;;;;;;;;;;;;;19.81;44.08;98798.72;7285612;19;152458;-51
2022/02/18 09:46:23;;;;;;;;;;;;;;;19.79;44.12;98778.66;7282884;19;153419;-51
2022/02/18 09:48:50;;;;;;;;;;;;;;;19.74;43.45;98788.13;7284764;19;151970;-51
2022/02/18 09:51:18;;;;;;;;;;;;;;;19.72;43.38;98790.47;7284011;19;153799;-50
2022/02/18 09:53:46;;;;;;;;;;;;;;;19.72;44.00;98779.25;7283277;19;152834;-51
2022/02/18 09:56:14;;;;;;;;;;;;;;;19.71;44.13;98746.81;7284379;19;152142;-51
2022/02/18 09:58:41;;;;;;;;;;;;;;;19.68;43.68;98725.09;7285418;19;153386;-51
2022/02/18 10:01:08;;;;;;;;;;;;;;;19.65;43.61;98742.63;7290726;19;154109;-51
2022/02/18 10:03:36;;;;;;;;;;;;;;;19.60;43.31;98728.88;7281493;19;153252;-51
2022/02/18 10:06:03;;;;;;;;;;;;;;;19.56;42.61;98716.75;7284779;19;152541;-51
2022/02/18 10:08:31;;;;;;;;;;;;;;;19.54;43.20;98677.06;7283589;19;151814;-51
2022/02/18 10:10:58;;;;;;;;;;;;;;;19.52;42.71;98677.44;7282199;19;153478;-51
2022/02/18 10:13:30;;;;;;;;;;;;;;;19.52;43.72;98677.44;7284419;19;152989;-50
2022/02/18 10:16:00;;;;;;;;;;;;;;;19.50;43.07;98678.97;7285943;19;151659;-50
2022/02/18 10:18:28;;;;;;;;;;;;;;;19.48;42.75;98690.53;7285896;19;152660;-51
2022/02/18 10:20:55;;;;;;;;;;;;;;;19.48;43.08;98678.53;7282235;19;152019;-50
2022/02/18 10:23:22;;;;;;;;;;;;;;;19.52;43.16;98651.44;7289419;19;152052;-50
2022/02/18 10:25:52;;;;;;;;;;;;;;;19.55;43.14;98628.28;7284462;19;152444;-50
2022/02/18 10:28:21;;;;;;;;;;;;;;;19.56;42.83;98621.53;7281395;19;152221;-51
2022/02/18 10:30:59;;;;;;;;;;;;;;;19.57;43.13;98597.94;7282752;19;153453;-51
2022/02/18 10:33:26;;;;;;;;;;;;;;;19.63;42.79;98590.06;7280652;19;154320;-51
2022/02/18 10:36:01;;;;;;;;;;;;;;;19.66;42.88;98576.19;7285643;19;151526;-50
2022/02/18 10:38:37;;;;;;;;;;;;;;;19.71;42.73;98553.50;7280590;19;153870;-50
2022/02/18 10:41:13;;;;;;;;;;;;;;;19.75;42.25;98613.25;7279369;19;154318;-50
2022/02/18 10:43:44;;;;;;;;;;;;;;;19.80;42.57;98584.97;7281472;19;152325;-50
2022/02/18 10:46:11;;;;;;;;;;;;;;;19.85;42.64;98598.69;7288899;19;152263;-52
2022/02/18 10:48:48;;;;;;;;;;;;;;;19.90;41.87;98569.56;7282598;19;151984;-52
2022/02/18 10:51:21;;;;;;;;;;;;;;;19.96;41.75;98557.75;7284732;19;153220;-49
2022/02/18 10:53:50;;;;;;;;;;;;;;;20.00;41.87;98527.00;7282687;19;154344;-49
2022/02/18 10:56:19;;;;;;;;;;;;;;;20.06;41.74;98507.91;7283600;19;152199;-49
2022/02/18 10:58:46;;;;;;;;;;;;;;;20.11;41.87;98536.47;7281153;19;153298;-49
2022/02/18 11:01:13;;;;;;;;;;;;;;;20.16;41.59;98529.78;7282112;19;155918;-49
2022/02/18 11:03:42;;;;;;;;;;;;;;;20.20;41.60;98500.66;7281750;19;151921;-49
2022/02/18 11:06:10;;;;;;;;;;;;;;;20.25;41.50;98561.22;7289896;19;154358;-49
2022/02/18 11:08:39;;;;;;;;;;;;;;;20.29;40.95;98508.84;7280570;19;151986;-50
2022/02/18 11:11:10;;;;;;;;;;;;;;;20.33;40.81;98495.75;7279594;19;152734;-51
2022/02/18 11:13:40;;;;;;;;;;;;;;;20.37;40.71;98451.75;7278300;19;155048;-50
2022/02/18 11:16:09;;;;;;;;;;;;;;;20.41;39.39;98506.75;7283039;19;152359;-52
2022/02/18 11:18:37;;;;;;;;;;;;;;;20.44;39.44;98471.56;7287604;19;153693;-51
2022/02/18 11:21:04;;;;;;;;;;;;;;;20.50;39.33;98444.00;7284918;19;156100;-51
2022/02/18 11:23:33;;;;;;;;;;;;;;;20.54;39.39;98458.91;7284844;19;152586;-50
2022/02/18 11:26:00;;;;;;;;;;;;;;;20.57;39.78;98458.19;7287790;19;153232;-51
2022/02/18 11:28:28;;;;;;;;;;;;;;;20.58;38.50;98404.50;7292594;19;153927;-51
2022/02/18 11:30:57;;;;;;;;;;;;;;;20.64;38.82;98407.84;7285144;19;154296;-50
2022/02/18 11:33:35;;;;;;;;;;;;;;;20.68;38.97;98445.19;7283572;19;153983;-50
2022/02/18 11:36:03;;;;;;;;;;;;;;;20.71;38.86;98422.03;7288291;19;152525;-51
2022/02/18 11:38:31;;;;;;;;;;;;;;;20.72;38.11;98403.97;7284449;19;155623;-50
2022/02/18 11:41:08;;;;;;;;;;;;;;;20.75;38.46;98415.28;7279953;19;154207;-51
2022/02/18 11:43:43;;;;;;;;;;;;;;;20.79;38.39;98401.31;7284815;19;151957;-50
2022/02/18 11:46:20;;;;;;;;;;;;;;;20.82;37.93;98375.31;7285930;19;155103;-50
2022/02/18 11:48:49;;;;;;;;;;;;;;;20.85;37.55;98397.81;7283910;19;155879;-50
2022/02/18 11:51:22;;;;;;;;;;;;;;;20.88;37.57;98452.41;7293514;19;152131;-51
2022/02/18 11:53:53;;;;;;;;;;;;;;;20.91;37.59;98389.91;7286099;19;154117;-50
2022/02/18 11:56:37;;;;;;;;;;;;;;;20.95;36.97;98379.56;7285482;19;151939;-51
2022/02/18 11:59:04;;;;;;;;;;;;;;;20.97;37.69;98377.19;7284043;19;152549;-51
2022/02/18 12:01:52;;;;;;;;;;;;;;;21.02;37.72;98362.03;7285889;19;152986;-50
2022/02/18 12:04:19;;;;;;;;;;;;;;;21.05;37.57;98380.94;7282032;19;152092;-51
2022/02/18 12:06:56;;;;;;;;;;;;;;;21.08;37.93;98391.41;7284079;19;152991;-51
2022/02/18 12:09:33;;;;;;;;;;;;;;;21.09;37.25;98398.66;7284509;19;153412;-50
2022/02/18 12:12:00;;;;;;;;;;;;;;;21.11;37.23;98466.50;7113210;19;3325540;-50
2022/02/18 12:14:28;;;;;;;;;;;;;;;21.14;37.66;98353.44;7295075;19;152192;-51
2022/02/18 12:16:55;;;;;;;;;;;;;;;21.14;36.62;98387.97;7286342;19;151792;-51
2022/02/18 12:19:25;;;;;;;;;;;;;;;21.17;36.61;98363.91;7288701;19;152860;-51
2022/02/18 12:21:55;;;;;;;;;;;;;;;20.81;33.40;98413.78;7288102;19;153633;-50
2022/02/18 12:24:32;;;;;;;;;;;;;;;20.72;34.48;98379.53;7286158;19;152078;-50
2022/02/18 12:27:09;;;;;;;;;;;;;;;20.77;34.36;98392.44;7285200;19;151997;-51
2022/02/18 12:29:36;;;;;;;;;;;;;;;20.85;35.80;98427.88;7286171;19;153480;-50
2022/02/18 12:32:04;;;;;;;;;;;;;;;20.87;35.07;98400.25;7288056;19;151930;-51
2022/02/18 12:34:33;;;;;;;;;;;;;;;20.89;35.27;98442.81;7287990;19;152097;-51
2022/02/18 12:37:01;;;;;;;;;;;;;;;20.90;35.49;98405.13;7294627;19;154686;-52
2022/02/18 12:39:37;;;;;;;;;;;;;;;20.87;35.14;98408.69;7285521;19;153578;-52